Overview Statistics Trail Chart Weather Telemetry Raw packets
 

This is the latest recevied weather packets stored in our database for station/object EA3CH. If no packets are shown the sender has not sent any weather packets the latest 10 day(s).

<< 27 28 29 30 31 32 33 >>
Time Temp. Humidity Pressure Rain* Wind** Luminosity Snow
1788038104 18.89° C 92% 1020 hPa 0 mm - 0 W/m² -
1788037205 20° C 81% 1019.7 hPa 0 mm - 0 W/m² -
1788037204 18.89° C 91% 1019.9 hPa 0 mm - 0 W/m² -
1788036303 19.44° C 90% 1019.8 hPa 0 mm - 0 W/m² -
1788035404 19.44° C 88% 1019.8 hPa 0 mm - 0 W/m² -
1788034513 20° C 79% 1019.5 hPa 0 mm - 0 W/m² -
1788033605 20.56° C 78% 1019.3 hPa 0 mm - 0 W/m² -
1788033603 20° C 86% 1019.4 hPa 0 mm - 0 W/m² -
1788032704 20.56° C 85% 1019.2 hPa 0 mm - 0 W/m² -
1788031804 20.56° C 84% 1019 hPa 0 mm - 0 W/m² -
1788030903 21.11° C 82% 1018.8 hPa 0 mm - 0 W/m² -
1788030004 21.11° C 81% 1018.7 hPa 0 mm - 0 W/m² -
1788029105 21.67° C 71% 1018.3 hPa 0 mm - 0 W/m² -
1788029104 21.67° C 79% 1018.5 hPa 0 mm - 0 W/m² -
1788028204 22.22° C 78% 1018.4 hPa 0 mm - 0 W/m² -
1788027305 22.78° C 69% 1018.2 hPa 0 mm - 0 W/m² -
1788027304 22.22° C 77% 1018.3 hPa 0 mm - 0 W/m² -
1788026404 23.33° C 75% 1018.3 hPa 0 mm - 0 W/m² -
1788025505 23.89° C 64% 1018.1 hPa 0 mm - 0 W/m² -
1788025504 23.89° C 72% 1018.3 hPa 0 mm - 0 W/m² -
1788024605 24.44° C 62% 1018.1 hPa 0 mm - 0 W/m² -
1788024603 24.44° C 70% 1018.2 hPa 0 mm - 0 W/m² -
1788023704 25° C 59% 1018.1 hPa 0 mm - 0 W/m² -
1788023704 25° C 68% 1018.3 hPa 0 mm - 0 W/m² -
1788022804 26.11° C 63% 1018.3 hPa 0 mm - 0 W/m² -

* Rain latest hour (hover to see other rain measurements)
** Current wind speed in m/s (hover to see current wind gust speed)